createdAt,value
2023-04-20T00:00:38.544Z,2.10
2023-04-20T00:03:05.459Z,1.77
2023-04-20T00:05:32.351Z,2.07
2023-04-20T00:07:59.274Z,1.90
2023-04-20T00:10:26.097Z,1.80
2023-04-20T00:12:52.837Z,2.30
2023-04-20T00:15:19.575Z,1.98
2023-04-20T00:17:46.521Z,1.70
2023-04-20T00:20:13.426Z,1.67
2023-04-20T00:22:40.122Z,1.60
2023-04-20T00:25:11.334Z,1.90
2023-04-20T00:27:38.077Z,1.60
2023-04-20T00:30:05.408Z,1.40
2023-04-20T00:32:32.118Z,1.60
2023-04-20T00:34:58.867Z,2.00
2023-04-20T00:37:25.780Z,1.40
2023-04-20T00:39:52.724Z,2.03
2023-04-20T00:42:19.488Z,1.50
2023-04-20T00:44:46.209Z,1.70
2023-04-20T00:47:12.851Z,1.80
2023-04-20T00:49:39.794Z,1.60
2023-04-20T00:52:06.628Z,1.70
2023-04-20T00:54:33.361Z,1.40
2023-04-20T00:57:00.511Z,1.60
2023-04-20T00:59:27.251Z,1.93
2023-04-20T01:01:54.417Z,1.80
2023-04-20T01:04:22.297Z,1.70
2023-04-20T01:06:49.131Z,1.77
2023-04-20T01:09:16.329Z,1.87
2023-04-20T01:11:43.299Z,1.83
2023-04-20T01:14:10.071Z,1.70
2023-04-20T01:16:37.020Z,1.50
2023-04-20T01:19:03.804Z,1.70
2023-04-20T01:21:31.124Z,1.30
2023-04-20T01:23:58.293Z,1.73
2023-04-20T01:26:28.683Z,1.90
2023-04-20T01:28:58.897Z,1.70
2023-04-20T01:31:25.686Z,1.90
2023-04-20T01:33:52.430Z,1.70
2023-04-20T01:36:19.150Z,1.60
2023-04-20T01:38:45.880Z,1.30
2023-04-20T01:41:12.599Z,1.50
2023-04-20T01:43:39.509Z,2.10
2023-04-20T01:46:07.159Z,1.40
2023-04-20T01:48:34.215Z,1.50
2023-04-20T01:51:00.970Z,1.50
2023-04-20T01:53:27.968Z,1.67
2023-04-20T01:55:55.765Z,1.40
2023-04-20T01:58:22.533Z,1.90
2023-04-20T02:00:49.301Z,1.50
2023-04-20T02:03:16.527Z,1.53
2023-04-20T02:05:43.393Z,1.73
2023-04-20T02:08:10.349Z,1.97
2023-04-20T02:10:37.025Z,1.80
2023-04-20T02:13:03.798Z,1.60
2023-04-20T02:15:30.842Z,1.80
2023-04-20T02:17:58.108Z,2.00
2023-04-20T02:20:25.071Z,1.60
2023-04-20T02:22:51.838Z,1.70
2023-04-20T02:25:18.676Z,1.90
2023-04-20T02:27:45.328Z,1.80
2023-04-20T02:30:12.568Z,1.90
2023-04-20T02:32:39.356Z,1.93
2023-04-20T02:35:06.502Z,1.70
2023-04-20T02:37:33.315Z,1.90
2023-04-20T02:39:59.981Z,2.00
2023-04-20T02:42:26.573Z,1.90
2023-04-20T02:44:53.262Z,1.77
2023-04-20T02:47:20.134Z,2.47
2023-04-20T02:49:47.533Z,1.60
2023-04-20T02:52:14.717Z,1.60
2023-04-20T02:54:41.619Z,1.90
2023-04-20T02:57:08.333Z,1.80
2023-04-20T02:59:35.075Z,1.90
2023-04-20T03:02:01.823Z,2.00
2023-04-20T03:04:28.763Z,1.67
2023-04-20T03:06:55.863Z,1.73
2023-04-20T03:09:23.178Z,2.03
2023-04-20T03:11:50.405Z,2.00
2023-04-20T03:14:17.554Z,1.80
2023-04-20T03:16:44.499Z,2.00
2023-04-20T03:19:11.259Z,1.90
2023-04-20T03:21:38.028Z,2.33
2023-04-20T03:24:06.919Z,1.90
2023-04-20T03:26:33.621Z,1.83
2023-04-20T03:29:00.417Z,2.00
2023-04-20T03:31:27.420Z,1.93
2023-04-20T03:33:54.181Z,1.87
2023-04-20T03:36:20.874Z,1.83
2023-04-20T03:38:47.542Z,2.00
2023-04-20T03:41:14.919Z,2.10
2023-04-20T03:43:41.786Z,1.70
2023-04-20T03:46:08.619Z,1.77
2023-04-20T03:48:35.646Z,1.80
2023-04-20T03:51:02.388Z,1.83
2023-04-20T03:53:29.237Z,2.00
2023-04-20T03:55:56.165Z,2.10
2023-04-20T03:58:22.907Z,2.10
2023-04-20T04:00:49.616Z,2.20
2023-04-20T04:03:16.698Z,1.77
2023-04-20T04:05:43.624Z,1.97
2023-04-20T04:08:10.355Z,1.97
2023-04-20T04:10:37.246Z,2.40
2023-04-20T04:13:03.935Z,1.90
2023-04-20T04:15:30.701Z,2.30
2023-04-20T04:17:57.599Z,2.10
2023-04-20T04:20:24.486Z,2.00
2023-04-20T04:22:52.154Z,2.20
2023-04-20T04:25:19.043Z,2.07
2023-04-20T04:27:46.491Z,2.43
2023-04-20T04:30:13.773Z,2.10
2023-04-20T04:32:41.790Z,2.37
2023-04-20T04:35:08.880Z,2.27
2023-04-20T04:37:35.527Z,2.20
2023-04-20T04:40:04.172Z,2.00
2023-04-20T04:42:31.180Z,2.00
2023-04-20T04:44:58.549Z,2.00
2023-04-20T04:47:25.633Z,2.60
2023-04-20T04:49:52.669Z,2.43
2023-04-20T04:52:19.367Z,2.00
2023-04-20T04:54:46.179Z,1.97
2023-04-20T04:57:13.106Z,2.50
2023-04-20T04:59:39.953Z,2.30
2023-04-20T05:02:06.822Z,2.40
2023-04-20T05:04:33.764Z,2.20
2023-04-20T05:07:00.753Z,2.33
2023-04-20T05:09:33.296Z,2.30
2023-04-20T05:12:03.909Z,1.93
2023-04-20T05:14:32.214Z,2.37
2023-04-20T05:17:00.050Z,2.07
2023-04-20T05:19:26.786Z,2.10
2023-04-20T05:21:53.519Z,2.10
2023-04-20T05:24:20.337Z,2.37
2023-04-20T05:26:47.143Z,2.50
2023-04-20T05:29:16.058Z,2.30
2023-04-20T05:31:42.984Z,2.20
2023-04-20T05:34:09.686Z,2.27
2023-04-20T05:36:37.119Z,2.00
2023-04-20T05:39:03.895Z,2.33
2023-04-20T05:41:30.526Z,2.23
2023-04-20T05:43:57.386Z,2.57
2023-04-20T05:46:24.205Z,2.57
2023-04-20T05:48:51.047Z,2.60
2023-04-20T05:51:17.883Z,2.40
2023-04-20T05:53:44.747Z,2.77
2023-04-20T05:56:12.304Z,3.20
2023-04-20T05:58:39.466Z,2.57
2023-04-20T06:01:11.986Z,2.40
2023-04-20T06:03:40.556Z,2.60
2023-04-20T06:06:14.936Z,2.60
2023-04-20T06:08:43.419Z,2.53
2023-04-20T06:11:10.250Z,2.73
2023-04-20T06:13:37.042Z,2.50
2023-04-20T06:16:04.133Z,3.00
2023-04-20T06:18:30.978Z,3.07
2023-04-20T06:20:57.679Z,2.80
2023-04-20T06:23:24.642Z,2.70
2023-04-20T06:25:51.575Z,2.33
2023-04-20T06:28:22.108Z,2.50
2023-04-20T06:30:48.770Z,2.87
2023-04-20T06:33:17.315Z,2.87
2023-04-20T06:35:44.500Z,2.67
2023-04-20T06:38:11.174Z,3.07
2023-04-20T06:40:37.876Z,2.83
2023-04-20T06:43:04.526Z,3.00
2023-04-20T06:45:32.897Z,3.00
2023-04-20T06:48:00.981Z,2.57
2023-04-20T06:50:27.863Z,2.90
2023-04-20T06:52:54.572Z,3.17
2023-04-20T06:55:21.363Z,2.90
2023-04-20T06:57:48.205Z,3.30
2023-04-20T07:00:15.600Z,2.77
2023-04-20T07:02:50.510Z,3.23
2023-04-20T07:05:18.613Z,3.37
2023-04-20T07:07:45.679Z,3.50
2023-04-20T07:10:14.053Z,3.00
2023-04-20T07:12:43.242Z,3.57
2023-04-20T07:15:10.909Z,3.23
2023-04-20T07:17:37.739Z,3.00
2023-04-20T07:20:08.308Z,3.73
2023-04-20T07:22:39.031Z,3.57
2023-04-20T07:25:07.980Z,3.30
2023-04-20T07:27:36.651Z,3.40
2023-04-20T07:30:04.497Z,2.90
2023-04-20T07:32:31.213Z,3.00
2023-04-20T07:34:57.852Z,3.10
2023-04-20T07:37:26.836Z,3.47
2023-04-20T07:39:54.074Z,2.80
2023-04-20T07:42:21.566Z,3.47
2023-04-20T07:44:48.774Z,3.97
2023-04-20T07:47:17.508Z,3.30
2023-04-20T07:49:44.237Z,3.80
2023-04-20T07:52:16.990Z,3.60
2023-04-20T07:55:03.260Z,3.47
2023-04-20T07:57:30.088Z,3.30
2023-04-20T07:59:56.810Z,3.90
2023-04-20T08:02:23.786Z,4.33
2023-04-20T08:04:50.921Z,4.03
2023-04-20T08:07:18.004Z,3.97
2023-04-20T08:09:44.829Z,3.60
2023-04-20T08:12:11.475Z,4.20
2023-04-20T08:14:38.326Z,4.17
2023-04-20T08:17:05.167Z,3.60
2023-04-20T08:19:32.010Z,3.40
2023-04-20T08:21:59.816Z,4.07
2023-04-20T08:24:28.030Z,3.97
2023-04-20T08:26:54.693Z,3.37
2023-04-20T08:29:21.429Z,4.03
2023-04-20T08:31:49.986Z,3.73
2023-04-20T08:34:18.051Z,4.20
2023-04-20T08:36:45.191Z,3.87
2023-04-20T08:39:14.683Z,3.90
2023-04-20T08:41:41.490Z,3.43
2023-04-20T08:44:08.297Z,4.83
2023-04-20T08:46:35.469Z,4.03
2023-04-20T08:49:05.058Z,4.07
2023-04-20T08:51:32.650Z,4.17
2023-04-20T08:54:06.667Z,4.17
2023-04-20T08:56:38.000Z,4.10
2023-04-20T08:59:05.625Z,4.93
2023-04-20T09:01:35.599Z,4.10
2023-04-20T09:04:03.783Z,4.60
2023-04-20T09:06:31.588Z,4.07
2023-04-20T09:08:58.332Z,4.07
2023-04-20T09:11:26.555Z,4.67
2023-04-20T09:14:12.351Z,4.60
2023-04-20T09:16:50.760Z,4.33
2023-04-20T09:19:24.754Z,4.50
2023-04-20T09:21:53.781Z,5.00
2023-04-20T09:24:22.036Z,4.57
2023-04-20T09:26:49.138Z,4.87
2023-04-20T09:29:24.039Z,4.57
2023-04-20T09:31:51.759Z,4.23
2023-04-20T09:34:19.691Z,4.70
2023-04-20T09:36:50.343Z,5.10
2023-04-20T09:39:22.921Z,5.10
2023-04-20T09:41:51.116Z,4.67
2023-04-20T09:44:18.900Z,4.67
2023-04-20T09:46:47.020Z,5.27
2023-04-20T09:49:14.931Z,5.13
2023-04-20T09:51:50.842Z,6.10
2023-04-20T09:54:17.926Z,5.17
2023-04-20T09:56:46.173Z,5.50
2023-04-20T09:59:13.859Z,5.87
2023-04-20T10:01:40.999Z,5.03
2023-04-20T10:04:10.894Z,5.10
2023-04-20T10:06:38.585Z,4.97
2023-04-20T10:09:07.718Z,5.27
2023-04-20T10:11:48.885Z,4.97
2023-04-20T10:14:24.554Z,5.20
2023-04-20T10:17:11.839Z,5.30
2023-04-20T10:19:41.556Z,5.50
2023-04-20T10:22:10.455Z,5.50
2023-04-20T10:24:40.652Z,5.50
2023-04-20T10:27:21.200Z,5.50
2023-04-20T10:29:48.162Z,5.67
2023-04-20T10:32:29.082Z,5.27
2023-04-20T10:35:11.064Z,5.53
2023-04-20T10:37:51.601Z,5.87
2023-04-20T10:40:27.160Z,5.07
2023-04-20T10:42:53.826Z,6.27
2023-04-20T10:45:22.004Z,5.90
2023-04-20T10:47:48.926Z,5.20
2023-04-20T10:50:18.161Z,5.97
2023-04-20T10:52:44.974Z,5.30
2023-04-20T10:55:26.048Z,6.00
2023-04-20T10:57:53.388Z,5.47
2023-04-20T11:00:26.325Z,5.37
2023-04-20T11:02:55.151Z,5.90
2023-04-20T11:05:28.833Z,6.73
2023-04-20T11:08:01.096Z,5.50
2023-04-20T11:10:42.678Z,5.07
2023-04-20T11:13:23.399Z,6.23
2023-04-20T11:15:50.094Z,6.37
2023-04-20T11:18:16.916Z,6.03
2023-04-20T11:20:56.976Z,5.57
2023-04-20T11:23:25.499Z,6.63
2023-04-20T11:25:53.620Z,5.83
2023-04-20T11:28:20.420Z,5.80
2023-04-20T11:30:47.685Z,6.20
2023-04-20T11:33:14.572Z,6.10
2023-04-20T11:35:43.163Z,6.33
2023-04-20T11:38:10.223Z,6.30
2023-04-20T11:40:36.944Z,6.27
2023-04-20T11:43:04.733Z,6.40
2023-04-20T11:45:35.693Z,6.00
2023-04-20T11:48:04.578Z,6.43
2023-04-20T11:50:31.536Z,6.43
2023-04-20T11:52:58.461Z,6.30
2023-04-20T11:55:25.181Z,6.53
2023-04-20T11:57:51.962Z,6.30
2023-04-20T12:00:19.362Z,7.07
2023-04-20T12:02:46.499Z,6.20
2023-04-20T12:05:14.333Z,6.77
2023-04-20T12:07:41.421Z,6.90
2023-04-20T12:10:08.908Z,7.17
2023-04-20T12:12:36.830Z,5.97
2023-04-20T12:15:03.788Z,6.37
2023-04-20T12:17:30.700Z,5.73
2023-04-20T12:20:00.580Z,6.77
2023-04-20T12:22:27.605Z,6.07
2023-04-20T12:24:54.375Z,5.53
2023-04-20T12:27:21.149Z,5.93
2023-04-20T12:29:47.819Z,5.80
2023-04-20T12:32:14.504Z,6.73
2023-04-20T12:34:41.227Z,6.43
2023-04-20T12:37:07.911Z,5.77
2023-04-20T12:39:34.617Z,5.60
2023-04-20T12:42:02.456Z,6.00
2023-04-20T12:44:29.247Z,5.80
2023-04-20T12:46:56.227Z,6.43
2023-04-20T12:49:22.999Z,5.53
2023-04-20T12:51:49.880Z,6.23
2023-04-20T12:54:17.785Z,5.50
2023-04-20T12:56:44.542Z,6.03
2023-04-20T12:59:11.382Z,5.67
2023-04-20T13:01:38.090Z,6.17
2023-04-20T13:04:04.901Z,5.73
2023-04-20T13:06:32.871Z,6.17
2023-04-20T13:09:00.935Z,6.03
2023-04-20T13:11:27.693Z,6.57
2023-04-20T13:13:54.463Z,6.07
2023-04-20T13:16:21.376Z,6.33
2023-04-20T13:18:48.219Z,6.87
2023-04-20T13:21:15.549Z,6.63
2023-04-20T13:23:42.276Z,6.97
2023-04-20T13:26:09.305Z,6.63
2023-04-20T13:28:37.667Z,6.30
2023-04-20T13:31:04.674Z,7.30
2023-04-20T13:33:32.366Z,6.47
2023-04-20T13:35:59.137Z,7.23
2023-04-20T13:38:25.856Z,6.13
2023-04-20T13:40:52.628Z,6.13
2023-04-20T13:43:21.360Z,6.30
2023-04-20T13:45:48.401Z,6.50
2023-04-20T13:48:15.136Z,6.73
2023-04-20T13:50:42.075Z,6.70
2023-04-20T13:53:08.769Z,6.30
2023-04-20T13:55:35.705Z,7.57
2023-04-20T13:58:02.605Z,6.60
2023-04-20T14:00:29.359Z,6.53
2023-04-20T14:02:56.293Z,7.20
2023-04-20T14:05:23.143Z,7.17
2023-04-20T14:07:49.907Z,7.07
2023-04-20T14:10:16.759Z,6.77
2023-04-20T14:12:43.559Z,6.93
2023-04-20T14:15:11.464Z,7.90
2023-04-20T14:17:38.214Z,6.60
2023-04-20T14:20:05.866Z,6.77
2023-04-20T14:22:36.124Z,7.43
2023-04-20T14:25:06.889Z,7.07
2023-04-20T14:27:34.125Z,7.33
2023-04-20T14:30:02.620Z,7.50
2023-04-20T14:32:31.390Z,6.60
2023-04-20T14:34:58.256Z,6.43
2023-04-20T14:37:27.058Z,7.17
2023-04-20T14:39:53.879Z,7.40
2023-04-20T14:42:21.117Z,6.90
2023-04-20T14:44:48.881Z,7.53
2023-04-20T14:47:15.962Z,7.40
2023-04-20T14:49:44.473Z,7.50
2023-04-20T14:52:11.226Z,7.63
2023-04-20T14:54:38.004Z,7.20
2023-04-20T14:57:04.741Z,8.03
2023-04-20T14:59:33.664Z,7.23
2023-04-20T15:02:02.798Z,7.50
2023-04-20T15:04:30.987Z,7.13
2023-04-20T15:06:57.883Z,7.43
2023-04-20T15:09:24.945Z,7.33
2023-04-20T15:11:51.623Z,7.57
2023-04-20T15:14:18.502Z,7.10
2023-04-20T15:16:45.325Z,7.30
2023-04-20T15:19:12.021Z,7.10
2023-04-20T15:21:38.704Z,7.57
2023-04-20T15:24:05.845Z,7.43
2023-04-20T15:26:32.596Z,8.10
2023-04-20T15:28:59.288Z,7.50
2023-04-20T15:31:25.969Z,7.50
2023-04-20T15:33:52.677Z,6.73
2023-04-20T15:36:20.496Z,7.13
2023-04-20T15:38:47.167Z,6.90
2023-04-20T15:41:13.946Z,7.77
2023-04-20T15:43:40.839Z,7.30
2023-04-20T15:46:08.036Z,7.47
2023-04-20T15:48:34.753Z,7.27
2023-04-20T15:51:01.500Z,6.90
2023-04-20T15:53:28.285Z,6.73
2023-04-20T15:55:54.959Z,6.70
2023-04-20T15:58:22.354Z,7.33
2023-04-20T16:00:49.526Z,7.20
2023-04-20T16:03:16.395Z,7.27
2023-04-20T16:05:43.204Z,7.10
2023-04-20T16:08:10.097Z,7.50
2023-04-20T16:10:36.774Z,6.87
2023-04-20T16:13:03.923Z,6.93
2023-04-20T16:15:31.386Z,6.97
2023-04-20T16:18:00.103Z,7.07
2023-04-20T16:20:26.884Z,7.67
2023-04-20T16:22:53.578Z,7.07
2023-04-20T16:25:23.159Z,6.97
2023-04-20T16:27:51.586Z,7.23
2023-04-20T16:30:27.387Z,7.07
2023-04-20T16:32:57.630Z,7.00
2023-04-20T16:35:24.522Z,6.80
2023-04-20T16:37:51.265Z,7.23
2023-04-20T16:40:21.107Z,7.57
2023-04-20T16:42:47.884Z,7.53
2023-04-20T16:45:14.663Z,7.10
2023-04-20T16:47:41.453Z,7.00
2023-04-20T16:50:09.251Z,6.47
2023-04-20T16:52:36.282Z,7.30
2023-04-20T16:55:03.053Z,7.40
2023-04-20T16:57:31.358Z,7.20
2023-04-20T16:59:58.118Z,6.97
2023-04-20T17:02:25.774Z,6.63
2023-04-20T17:04:52.673Z,7.67
2023-04-20T17:07:19.360Z,6.97
2023-04-20T17:09:46.121Z,6.73
2023-04-20T17:12:12.912Z,7.57
2023-04-20T17:14:39.787Z,7.00
2023-04-20T17:17:06.513Z,7.27
2023-04-20T17:19:34.603Z,6.40
2023-04-20T17:22:03.566Z,7.27
2023-04-20T17:24:30.310Z,6.67
2023-04-20T17:26:57.100Z,7.00
2023-04-20T17:29:24.226Z,7.30
2023-04-20T17:31:51.047Z,7.03
2023-04-20T17:34:19.905Z,7.13
2023-04-20T17:36:48.079Z,6.80
2023-04-20T17:39:16.525Z,7.10
2023-04-20T17:41:49.601Z,7.50
2023-04-20T17:44:16.677Z,6.90
2023-04-20T17:46:43.686Z,7.60
2023-04-20T17:49:10.543Z,7.67
2023-04-20T17:51:39.557Z,7.40
2023-04-20T17:54:08.153Z,7.40
2023-04-20T17:56:35.915Z,7.27
2023-04-20T17:59:04.333Z,7.67
2023-04-20T18:01:36.008Z,7.67
2023-04-20T18:04:03.912Z,7.40
2023-04-20T18:06:33.219Z,6.67
2023-04-20T18:09:00.812Z,7.40
2023-04-20T18:11:27.868Z,7.23
2023-04-20T18:13:54.597Z,7.70
2023-04-20T18:16:21.549Z,6.87
2023-04-20T18:18:51.893Z,7.03
2023-04-20T18:21:19.820Z,7.73
2023-04-20T18:23:46.806Z,7.60
2023-04-20T18:26:20.381Z,7.07
2023-04-20T18:28:47.188Z,7.47
2023-04-20T18:31:13.888Z,6.57
2023-04-20T18:33:40.718Z,7.60
2023-04-20T18:36:08.664Z,8.13
2023-04-20T18:38:35.465Z,7.07
2023-04-20T18:41:03.085Z,7.97
2023-04-20T18:43:29.956Z,7.60
2023-04-20T18:45:57.924Z,7.70
2023-04-20T18:48:24.603Z,7.27
2023-04-20T18:50:52.280Z,7.57
2023-04-20T18:53:19.201Z,8.20
2023-04-20T18:55:46.521Z,8.00
2023-04-20T18:58:13.347Z,7.87
2023-04-20T19:00:40.304Z,7.70
2023-04-20T19:03:07.298Z,7.50
2023-04-20T19:05:34.519Z,7.40
2023-04-20T19:08:03.326Z,7.73
2023-04-20T19:10:32.102Z,7.27
2023-04-20T19:12:58.751Z,7.97
2023-04-20T19:15:25.979Z,7.40
2023-04-20T19:17:56.292Z,7.93
2023-04-20T19:20:24.191Z,7.90
2023-04-20T19:22:51.216Z,7.47
2023-04-20T19:25:20.083Z,7.40
2023-04-20T19:27:46.986Z,7.20
2023-04-20T19:30:15.597Z,7.30
2023-04-20T19:32:42.961Z,7.60
2023-04-20T19:35:10.155Z,7.67
2023-04-20T19:37:37.080Z,6.70
2023-04-20T19:40:05.921Z,8.03
2023-04-20T19:42:33.114Z,8.03
2023-04-20T19:44:59.865Z,8.00
2023-04-20T19:47:27.442Z,7.80
2023-04-20T19:49:54.243Z,7.80
2023-04-20T19:52:21.099Z,6.53
2023-04-20T19:54:47.890Z,7.60
2023-04-20T19:57:14.711Z,7.77
2023-04-20T19:59:42.497Z,7.33
2023-04-20T20:02:09.227Z,7.70
2023-04-20T20:04:37.701Z,7.80
2023-04-20T20:07:04.767Z,8.30
2023-04-20T20:09:31.426Z,7.10
2023-04-20T20:11:59.683Z,7.17
2023-04-20T20:14:26.497Z,7.77
2023-04-20T20:16:53.205Z,8.00
2023-04-20T20:19:22.177Z,7.47
2023-04-20T20:21:50.626Z,8.53
2023-04-20T20:24:17.870Z,7.43
2023-04-20T20:26:44.794Z,7.63
2023-04-20T20:29:11.554Z,8.27
2023-04-20T20:31:38.471Z,8.70
2023-04-20T20:34:07.316Z,7.20
2023-04-20T20:36:35.861Z,7.37
2023-04-20T20:39:05.131Z,8.03
2023-04-20T20:41:32.536Z,8.67
2023-04-20T20:43:59.776Z,7.57
2023-04-20T20:46:26.739Z,7.90
2023-04-20T20:48:55.328Z,7.13
2023-04-20T20:51:22.080Z,7.50
2023-04-20T20:53:48.824Z,7.63
2023-04-20T20:56:15.528Z,7.47
2023-04-20T20:58:42.239Z,7.70
2023-04-20T21:01:09.003Z,7.23
2023-04-20T21:03:36.866Z,8.43
2023-04-20T21:06:04.376Z,8.40
2023-04-20T21:08:31.260Z,7.53
2023-04-20T21:10:58.089Z,7.80
2023-04-20T21:13:24.841Z,7.80
2023-04-20T21:15:51.579Z,7.97
2023-04-20T21:18:18.346Z,9.23
2023-04-20T21:20:45.002Z,7.83
2023-04-20T21:23:11.854Z,8.07
2023-04-20T21:25:38.687Z,8.33
2023-04-20T21:28:05.469Z,8.00
2023-04-20T21:30:32.930Z,8.47
2023-04-20T21:32:59.919Z,7.83
2023-04-20T21:35:26.634Z,8.30
2023-04-20T21:37:53.407Z,7.10
2023-04-20T21:40:20.347Z,7.37
2023-04-20T21:42:47.056Z,7.53
2023-04-20T21:45:13.809Z,7.53
2023-04-20T21:47:40.737Z,8.37
2023-04-20T21:50:07.594Z,7.90
2023-04-20T21:52:34.463Z,7.67
2023-04-20T21:55:01.159Z,8.10
2023-04-20T21:57:28.030Z,7.60
2023-04-20T21:59:54.738Z,7.40
2023-04-20T22:02:21.759Z,8.23
2023-04-20T22:04:49.180Z,8.17
2023-04-20T22:07:17.673Z,8.07
2023-04-20T22:09:44.985Z,8.30
2023-04-20T22:12:11.832Z,8.53
2023-04-20T22:14:38.617Z,8.23
2023-04-20T22:17:05.350Z,7.17
2023-04-20T22:19:32.086Z,7.70
2023-04-20T22:21:58.795Z,6.70
2023-04-20T22:24:25.678Z,8.13
2023-04-20T22:26:52.402Z,7.40
2023-04-20T22:29:19.467Z,7.40
2023-04-20T22:31:46.487Z,8.27
2023-04-20T22:34:13.265Z,7.60
2023-04-20T22:36:39.965Z,7.13
2023-04-20T22:39:06.895Z,7.10
2023-04-20T22:41:33.622Z,7.10
2023-04-20T22:44:00.591Z,7.00
2023-04-20T22:46:27.325Z,6.83
2023-04-20T22:48:54.310Z,7.43
2023-04-20T22:51:21.010Z,6.90
2023-04-20T22:53:47.834Z,7.10
2023-04-20T22:56:14.558Z,6.50
2023-04-20T22:58:41.320Z,7.67
2023-04-20T23:01:08.382Z,5.63
2023-04-20T23:03:35.160Z,6.27
2023-04-20T23:06:01.916Z,6.70
2023-04-20T23:08:28.754Z,6.67
2023-04-20T23:10:59.031Z,6.07
2023-04-20T23:13:26.417Z,6.10
2023-04-20T23:15:53.530Z,6.50
2023-04-20T23:18:20.347Z,6.07
2023-04-20T23:20:46.948Z,6.47
2023-04-20T23:23:13.635Z,6.57
2023-04-20T23:25:40.451Z,6.27
2023-04-20T23:28:07.319Z,6.13
2023-04-20T23:30:34.260Z,6.10
2023-04-20T23:33:01.059Z,6.23
2023-04-20T23:35:27.890Z,6.23
2023-04-20T23:37:55.678Z,5.70
2023-04-20T23:40:22.433Z,6.93
2023-04-20T23:42:49.407Z,6.33
2023-04-20T23:45:16.149Z,6.37
2023-04-20T23:47:42.873Z,6.30
2023-04-20T23:50:09.917Z,6.03
2023-04-20T23:52:37.035Z,6.67
2023-04-20T23:55:04.459Z,5.87
2023-04-20T23:57:31.109Z,6.23
2023-04-20T23:59:57.817Z,6.37
